createdAt,value
2022-09-20T00:04:04.436Z,13.39
2022-09-20T00:09:06.019Z,13.34
2022-09-20T00:14:08.297Z,13.11
2022-09-20T00:19:20.284Z,12.97
2022-09-20T00:24:21.812Z,12.86
2022-09-20T00:29:23.343Z,12.76
2022-09-20T00:34:24.981Z,12.69
2022-09-20T00:39:26.597Z,12.82
2022-09-20T00:44:57.306Z,12.90
2022-09-20T00:50:05.749Z,13.04
2022-09-20T00:55:08.468Z,13.06
2022-09-20T01:00:11.698Z,13.16
2022-09-20T01:05:15.686Z,13.21
2022-09-20T01:10:17.643Z,13.21
2022-09-20T01:15:20.621Z,13.21
2022-09-20T01:20:31.593Z,13.18
2022-09-20T01:26:01.909Z,13.14
2022-09-20T01:31:23.183Z,13.22
2022-09-20T01:36:31.336Z,13.15
2022-09-20T01:41:45.629Z,13.23
2022-09-20T01:46:53.553Z,13.23
2022-09-20T01:52:10.097Z,13.26
2022-09-20T01:57:42.251Z,13.26
2022-09-20T02:02:52.816Z,13.27
2022-09-20T02:08:11.113Z,13.20
2022-09-20T02:13:32.176Z,13.27
2022-09-20T02:18:36.476Z,13.28
2022-09-20T02:24:05.945Z,13.22
2022-09-20T02:29:13.267Z,13.15
2022-09-20T02:34:48.649Z,13.11
2022-09-20T02:39:59.174Z,13.11
2022-09-20T02:45:15.481Z,13.15
2022-09-20T02:50:45.365Z,13.13
2022-09-20T02:56:17.369Z,13.12
2022-09-20T03:01:24.730Z,13.10
2022-09-20T03:06:47.213Z,12.98
2022-09-20T03:12:14.394Z,12.90
2022-09-20T03:17:15.801Z,12.85
2022-09-20T03:22:55.922Z,12.75
2022-09-20T03:28:25.217Z,12.75
2022-09-20T03:33:32.378Z,12.78
2022-09-20T03:38:43.015Z,12.78
2022-09-20T03:43:56.555Z,12.86
2022-09-20T03:49:19.887Z,12.92
2022-09-20T03:54:48.959Z,13.00
2022-09-20T04:00:07.148Z,12.96
2022-09-20T04:05:18.288Z,12.94
2022-09-20T04:10:28.632Z,12.86
2022-09-20T04:15:31.157Z,12.86
2022-09-20T04:20:56.304Z,12.88
2022-09-20T04:26:01.320Z,12.83
2022-09-20T04:31:16.334Z,12.87
2022-09-20T04:36:36.981Z,12.91
2022-09-20T04:41:47.724Z,12.90
2022-09-20T04:47:20.471Z,12.90
2022-09-20T04:52:33.869Z,12.89
2022-09-20T04:58:29.931Z,12.89
2022-09-20T05:03:59.231Z,12.89
2022-09-20T05:09:12.995Z,12.93
2022-09-20T05:14:36.444Z,12.97
2022-09-20T05:19:47.063Z,12.96
2022-09-20T05:24:54.611Z,12.96
2022-09-20T05:30:33.090Z,12.98
2022-09-20T05:35:43.786Z,12.98
2022-09-20T05:41:08.267Z,13.06
2022-09-20T05:46:27.773Z,13.09
2022-09-20T05:51:41.297Z,13.12
2022-09-20T05:57:13.506Z,13.21
2022-09-20T06:02:27.968Z,13.27
2022-09-20T06:07:35.383Z,13.39
2022-09-20T06:13:03.993Z,13.49
2022-09-20T06:18:11.564Z,13.53
2022-09-20T06:23:13.350Z,13.60
2022-09-20T06:28:24.051Z,13.71
2022-09-20T06:33:28.332Z,13.51
2022-09-20T06:38:46.193Z,13.60
2022-09-20T06:43:47.739Z,13.76
2022-09-20T06:48:49.235Z,13.81
2022-09-20T06:53:51.487Z,13.85
2022-09-20T06:58:53.267Z,13.69
2022-09-20T07:03:54.861Z,13.84
2022-09-20T07:08:56.394Z,14.60
2022-09-20T07:13:57.967Z,15.66
2022-09-20T07:18:59.601Z,16.36
2022-09-20T07:24:01.385Z,16.84
2022-09-20T07:29:02.901Z,18.39
2022-09-20T07:34:04.485Z,17.95
2022-09-20T07:39:06.051Z,17.31
2022-09-20T07:44:07.624Z,17.59
2022-09-20T07:49:09.148Z,17.11
2022-09-20T07:54:10.675Z,18.24
2022-09-20T07:59:13.111Z,17.98
2022-09-20T08:04:14.625Z,18.67
2022-09-20T08:09:16.272Z,17.99
2022-09-20T08:14:18.338Z,18.27
2022-09-20T08:19:22.075Z,20.01
2022-09-20T08:24:23.781Z,18.25
2022-09-20T08:29:25.700Z,18.59
2022-09-20T08:34:27.475Z,18.55
2022-09-20T08:45:34.936Z,18.88
2022-09-20T08:50:37.254Z,18.17
2022-09-20T08:55:40.384Z,19.65
2022-09-20T09:00:45.608Z,19.19
2022-09-20T09:05:49.835Z,18.18
2022-09-20T09:11:01.862Z,19.79
2022-09-20T09:16:13.997Z,19.21
2022-09-20T09:21:28.471Z,19.09
2022-09-20T09:26:37.582Z,18.06
2022-09-20T09:31:39.144Z,17.82
2022-09-20T09:36:44.246Z,17.36
2022-09-20T09:41:45.795Z,17.51
2022-09-20T09:46:47.486Z,17.60
2022-09-20T09:52:13.750Z,18.01
2022-09-20T09:57:34.824Z,17.90
2022-09-20T10:03:04.419Z,17.80
2022-09-20T10:08:24.698Z,17.53
2022-09-20T10:13:55.168Z,17.51
2022-09-20T10:19:15.096Z,17.51
2022-09-20T10:24:27.039Z,17.17
2022-09-20T10:29:56.688Z,16.71
2022-09-20T10:35:25.717Z,16.61
2022-09-20T10:40:38.842Z,16.51
2022-09-20T10:46:27.581Z,16.57
2022-09-20T10:51:33.615Z,16.79
2022-09-20T10:56:43.140Z,17.48
2022-09-20T11:01:47.723Z,18.29
2022-09-20T11:07:26.238Z,19.21
2022-09-20T11:12:27.912Z,18.60
2022-09-20T11:17:36.075Z,19.16
2022-09-20T11:22:43.655Z,18.75
2022-09-20T11:28:01.424Z,19.14
2022-09-20T11:33:15.002Z,18.72
2022-09-20T11:38:27.645Z,18.12
2022-09-20T11:43:30.263Z,17.94
2022-09-20T11:49:10.925Z,17.70
2022-09-20T11:54:37.372Z,17.30
2022-09-20T11:59:48.818Z,17.16
2022-09-20T12:10:05.852Z,16.84
2022-09-20T12:15:31.887Z,16.00
2022-09-20T12:20:33.365Z,15.78
2022-09-20T12:25:39.119Z,15.84
2022-09-20T12:30:40.670Z,15.97
2022-09-20T12:35:58.975Z,16.27
2022-09-20T12:41:13.748Z,16.61
2022-09-20T12:46:26.679Z,17.15
2022-09-20T12:51:33.048Z,17.91
2022-09-20T12:56:41.362Z,17.99
2022-09-20T13:01:42.878Z,17.78
2022-09-20T13:06:44.454Z,19.45
2022-09-20T13:11:56.667Z,20.42
2022-09-20T13:17:19.207Z,21.16
2022-09-20T13:22:26.485Z,21.56
2022-09-20T13:27:49.991Z,21.52
2022-09-20T13:32:53.154Z,20.80
2022-09-20T13:38:01.762Z,19.51
2022-09-20T13:43:23.987Z,18.45
2022-09-20T13:48:30.200Z,18.30
2022-09-20T13:53:47.102Z,18.19
2022-09-20T13:58:50.172Z,19.27
2022-09-20T14:03:53.078Z,18.92
2022-09-20T14:08:56.197Z,18.36
2022-09-20T14:14:04.924Z,18.45
2022-09-20T14:19:08.214Z,19.15
2022-09-20T14:24:16.173Z,18.28
2022-09-20T14:29:39.001Z,17.89
2022-09-20T14:34:41.454Z,17.85
2022-09-20T14:39:53.950Z,17.61
2022-09-20T14:44:55.719Z,17.52
2022-09-20T14:49:58.407Z,18.15
2022-09-20T14:55:19.176Z,18.80
2022-09-20T15:00:20.830Z,19.40
2022-09-20T15:05:27.250Z,19.27
2022-09-20T15:10:28.803Z,18.90
2022-09-20T15:15:30.315Z,19.58
2022-09-20T15:20:32.067Z,20.53
2022-09-20T15:25:33.700Z,20.88
2022-09-20T15:30:35.992Z,20.16
2022-09-20T15:35:41.859Z,20.47
2022-09-20T15:40:44.470Z,20.39
2022-09-20T15:45:51.800Z,19.00
2022-09-20T15:51:08.077Z,19.06
2022-09-20T15:56:22.865Z,18.28
2022-09-20T16:01:29.467Z,18.41
2022-09-20T16:06:31.891Z,18.65
2022-09-20T16:11:34.168Z,17.93
2022-09-20T16:16:40.079Z,17.88
2022-09-20T16:21:44.360Z,17.91
2022-09-20T16:26:45.861Z,18.63
2022-09-20T16:31:49.372Z,18.09
2022-09-20T16:36:52.992Z,18.09
2022-09-20T16:42:02.985Z,17.90
2022-09-20T16:47:06.500Z,17.69
2022-09-20T16:52:09.117Z,17.38
2022-09-20T16:57:10.658Z,17.24
2022-09-20T17:02:12.279Z,17.12
2022-09-20T17:07:13.799Z,17.01
2022-09-20T17:12:15.335Z,16.95
2022-09-20T17:17:16.813Z,16.89
2022-09-20T17:22:18.331Z,16.80
2022-09-20T17:27:19.795Z,16.74
2022-09-20T17:32:21.292Z,16.64
2022-09-20T17:37:22.854Z,16.54
2022-09-20T17:42:24.375Z,16.43
2022-09-20T17:47:25.908Z,16.33
2022-09-20T17:52:27.392Z,16.21
2022-09-20T17:57:28.907Z,16.02
2022-09-20T18:02:30.695Z,15.90
2022-09-20T18:07:32.219Z,15.74
2022-09-20T18:12:33.717Z,15.61
2022-09-20T18:17:35.207Z,15.47
2022-09-20T18:22:36.764Z,15.33
2022-09-20T18:27:38.253Z,15.05
2022-09-20T18:32:39.780Z,14.88
2022-09-20T18:37:41.272Z,14.64
2022-09-20T18:42:42.751Z,14.40
2022-09-20T18:47:44.232Z,14.05
2022-09-20T18:52:45.793Z,13.73
2022-09-20T18:57:47.504Z,13.52
2022-09-20T19:03:10.119Z,13.36
2022-09-20T19:08:31.597Z,13.29
2022-09-20T19:13:51.347Z,13.19
2022-09-20T19:19:11.612Z,13.10
2022-09-20T19:24:28.373Z,12.98
2022-09-20T19:29:30.241Z,12.87
2022-09-20T19:34:33.109Z,12.89
2022-09-20T19:39:49.435Z,12.93
2022-09-20T19:45:02.685Z,13.10
2022-09-20T19:50:15.575Z,13.26
2022-09-20T19:55:17.553Z,13.40
2022-09-20T20:00:21.048Z,13.40
2022-09-20T20:05:23.525Z,13.40
2022-09-20T20:10:37.800Z,13.16
2022-09-20T20:15:46.577Z,13.06
2022-09-20T20:20:50.061Z,12.97
2022-09-20T20:26:05.560Z,12.79
2022-09-20T20:31:07.115Z,12.59
2022-09-20T20:36:09.533Z,12.46
2022-09-20T20:41:13.863Z,12.38
2022-09-20T20:46:17.691Z,12.31
2022-09-20T20:51:21.638Z,12.43
2022-09-20T20:56:28.640Z,12.40
2022-09-20T21:01:32.506Z,12.42
2022-09-20T21:06:35.851Z,12.52
2022-09-20T21:11:40.075Z,12.69
2022-09-20T21:16:43.363Z,12.82
2022-09-20T21:21:46.691Z,12.95
2022-09-20T21:26:48.201Z,12.93
2022-09-20T21:31:49.693Z,12.91
2022-09-20T21:36:51.169Z,12.97
2022-09-20T21:41:52.668Z,13.18
2022-09-20T21:46:54.174Z,13.17
2022-09-20T21:51:55.676Z,13.17
2022-09-20T21:56:57.200Z,12.84
2022-09-20T22:01:58.876Z,12.52
2022-09-20T22:07:00.536Z,12.18
2022-09-20T22:12:02.235Z,11.93
2022-09-20T22:17:03.760Z,11.75
2022-09-20T22:22:05.289Z,11.62
2022-09-20T22:27:06.815Z,11.47
2022-09-20T22:32:20.345Z,11.27
2022-09-20T22:37:21.866Z,11.27
2022-09-20T22:42:23.433Z,11.05
2022-09-20T22:47:25.306Z,10.79
2022-09-20T22:52:26.793Z,10.69
2022-09-20T23:04:05.489Z,10.78
2022-09-20T23:09:10.552Z,10.71
2022-09-20T23:14:14.994Z,10.60
2022-09-20T23:19:17.009Z,10.54
2022-09-20T23:24:31.522Z,10.55
2022-09-20T23:29:33.024Z,10.52
2022-09-20T23:34:34.563Z,10.42
2022-09-20T23:39:53.640Z,10.24
2022-09-20T23:44:55.364Z,10.05
2022-09-20T23:49:56.870Z,10.14
2022-09-20T23:55:39.595Z,9.98
